createdAt,value
2023-04-07T00:07:04.825Z,4.63
2023-04-07T00:22:09.264Z,4.17
2023-04-07T00:37:13.684Z,4.27
2023-04-07T00:52:19.868Z,4.43
2023-04-07T01:07:28.704Z,5.37
2023-04-07T01:22:48.559Z,4.43
2023-04-07T01:37:54.334Z,4.43
2023-04-07T01:52:59.241Z,4.60
2023-04-07T02:08:07.093Z,6.30
2023-04-07T02:23:14.597Z,4.17
2023-04-07T02:38:19.426Z,4.97
2023-04-07T02:53:23.947Z,5.53
2023-04-07T03:08:28.629Z,5.27
2023-04-07T03:23:34.114Z,6.13
2023-04-07T03:38:38.590Z,5.50
2023-04-07T03:53:43.120Z,5.73
2023-04-07T04:09:00.297Z,4.47
2023-04-07T04:24:05.085Z,5.37
2023-04-07T04:39:09.679Z,5.27
2023-04-07T04:54:17.304Z,4.67
2023-04-07T05:09:23.147Z,5.53
2023-04-07T05:24:29.589Z,5.47
2023-04-07T05:39:37.532Z,6.17
2023-04-07T05:54:46.108Z,7.00
2023-04-07T06:09:52.808Z,5.70
2023-04-07T06:24:57.395Z,6.17
2023-04-07T06:40:02.258Z,5.90
2023-04-07T06:55:07.886Z,9.27
2023-04-07T07:10:12.634Z,8.40
2023-04-07T07:25:17.257Z,8.43
2023-04-07T07:40:22.060Z,9.30
2023-04-07T07:55:26.524Z,8.13
2023-04-07T08:10:31.151Z,9.47
2023-04-07T08:25:36.380Z,8.70
2023-04-07T08:40:40.897Z,9.03
2023-04-07T08:55:45.472Z,8.27
2023-04-07T09:10:49.958Z,8.57
2023-04-07T09:25:54.449Z,17.00
2023-04-07T09:41:07.798Z,7.63
2023-04-07T09:56:12.989Z,6.30
2023-04-07T10:11:18.059Z,4.27
2023-04-07T10:26:27.569Z,3.93
2023-04-07T10:41:36.900Z,4.77
2023-04-07T10:57:10.494Z,3.23
2023-04-07T11:12:25.125Z,3.70
2023-04-07T11:27:30.696Z,3.27
2023-04-07T11:42:36.244Z,2.27
2023-04-07T11:57:40.811Z,2.30
2023-04-07T12:12:47.268Z,3.50
2023-04-07T12:27:52.089Z,4.00
2023-04-07T12:42:58.263Z,2.47
2023-04-07T12:58:03.127Z,2.03
2023-04-07T13:13:07.535Z,1.73
2023-04-07T13:28:12.271Z,2.67
2023-04-07T13:43:18.559Z,2.13
2023-04-07T13:58:23.040Z,2.00
2023-04-07T14:13:27.521Z,2.47
2023-04-07T14:28:31.995Z,1.33
2023-04-07T14:43:36.617Z,1.37
2023-04-07T14:58:41.348Z,1.30
2023-04-07T15:13:46.266Z,2.10
2023-04-07T15:28:50.857Z,2.10
2023-04-07T15:43:55.560Z,1.80
2023-04-07T15:58:59.993Z,1.63
2023-04-07T16:14:04.360Z,1.43
2023-04-07T16:29:08.778Z,1.73
2023-04-07T16:44:13.284Z,9.60
2023-04-07T16:59:17.939Z,13.40
2023-04-07T17:14:23.360Z,22.23
2023-04-07T17:29:29.164Z,6.00
2023-04-07T17:44:34.132Z,0.83
2023-04-07T17:59:38.597Z,0.90
2023-04-07T18:14:43.086Z,2.20
2023-04-07T18:29:47.634Z,2.07
2023-04-07T18:44:52.109Z,3.00
2023-04-07T18:59:56.893Z,2.00
2023-04-07T19:15:01.427Z,2.80
2023-04-07T19:30:07.045Z,2.00
2023-04-07T19:45:12.805Z,1.50
2023-04-07T20:00:18.284Z,2.40
2023-04-07T20:15:25.744Z,2.87
2023-04-07T20:30:30.486Z,2.60
2023-04-07T20:45:39.450Z,7.27
2023-04-07T21:00:44.294Z,4.67
2023-04-07T21:15:49.062Z,2.70
2023-04-07T21:30:55.778Z,2.73
2023-04-07T21:46:00.476Z,3.40
2023-04-07T22:01:05.069Z,3.40
2023-04-07T22:16:09.762Z,2.10
2023-04-07T22:31:14.424Z,3.13
2023-04-07T22:46:19.041Z,3.33
2023-04-07T23:01:23.598Z,3.23
2023-04-07T23:16:28.230Z,3.53
2023-04-07T23:31:36.153Z,3.60
2023-04-07T23:46:40.606Z,3.53
